Time;durP1;ratioP1;P1;durP2;ratioP2;P2;SDS_P1;SDS_P2;PMS_P1;PMS_P2;Temp;Humidity;BMP_temperature;BMP_pressure;BME280_temperature;BME280_humidity;BME280_pressure;Samples;Min_cycle;Max_cycle;Signal;HPM_P1;HPM_P2
2023/03/24 00:02:22;;;;;;;7.10;4.80;;;;;;;12.05;100.00;99331.47;4982659;28;20053;-86
2023/03/24 00:04:52;;;;;;;5.47;4.55;;;;;;;12.03;100.00;99326.25;4982871;28;20069;-88
2023/03/24 00:07:22;;;;;;;6.28;4.55;;;;;;;12.12;100.00;99344.19;4981479;28;20050;-90
2023/03/24 00:09:50;;;;;;;6.32;4.57;;;;;;;12.27;100.00;99369.69;4977766;28;20054;-89
2023/03/24 00:12:17;;;;;;;7.63;5.07;;;;;;;12.18;100.00;99348.22;4964839;28;20055;-88
2023/03/24 00:14:47;;;;;;;6.80;4.88;;;;;;;12.07;100.00;99335.72;4995876;28;20133;-88
2023/03/24 00:17:18;;;;;;;5.18;4.45;;;;;;;12.06;100.00;99331.34;4980866;28;20047;-87
2023/03/24 00:19:45;;;;;;;6.47;4.43;;;;;;;12.24;100.00;99355.75;4987917;28;20040;-86
2023/03/24 00:22:13;;;;;;;6.90;4.40;;;;;;;12.19;100.00;99352.56;4981543;28;20484;-89
2023/03/24 00:24:40;;;;;;;5.40;4.22;;;;;;;12.01;100.00;99338.78;4979921;28;20049;-89
2023/03/24 00:27:07;;;;;;;7.00;4.20;;;;;;;12.08;100.00;99339.22;4986533;28;20054;-89
2023/03/24 00:29:35;;;;;;;6.80;4.30;;;;;;;12.06;100.00;99344.63;4990998;28;20054;-86
2023/03/24 00:32:01;;;;;;;5.07;4.10;;;;;;;11.93;100.00;99328.72;4997407;28;20057;-87
2023/03/24 00:34:28;;;;;;;7.38;4.05;;;;;;;12.01;100.00;99341.44;4986072;28;20065;-86
2023/03/24 00:36:56;;;;;;;5.38;4.20;;;;;;;11.91;100.00;99321.81;4965685;28;20069;-86
2023/03/24 00:39:23;;;;;;;6.07;4.18;;;;;;;11.70;100.00;99283.47;4979899;28;20043;-88
2023/03/24 00:41:50;;;;;;;6.38;4.32;;;;;;;11.87;100.00;99301.75;4984403;28;20114;-86
2023/03/24 00:44:19;;;;;;;5.00;4.05;;;;;;;11.97;100.00;99307.25;4979618;28;20066;-86
2023/03/24 00:46:56;;;;;;;5.40;3.90;;;;;;;12.08;100.00;99315.34;4982333;28;20384;-84
2023/03/24 00:49:41;;;;;;;6.18;4.28;;;;;;;12.13;100.00;99303.41;5003503;28;20073;-84
2023/03/24 00:52:11;;;;;;;6.47;3.67;;;;;;;12.18;100.00;99296.00;4990138;28;20042;-85
2023/03/24 00:54:40;;;;;;;5.07;3.90;;;;;;;12.24;100.00;99294.72;4989343;28;20062;-87
2023/03/24 00:57:11;;;;;;;;;;;;;;;12.28;100.00;99281.09;4991550;28;20077;-89
2023/03/24 00:59:41;;;;;;;4.87;3.97;;;;;;;12.13;100.00;99255.66;5013965;28;19957;-86
2023/03/24 01:02:12;;;;;;;6.13;3.90;;;;;;;12.12;100.00;99263.75;4986592;28;20493;-84
2023/03/24 01:04:40;;;;;;;6.40;3.88;;;;;;;12.16;100.00;99270.50;5004468;28;20109;-86
2023/03/24 01:07:12;;;;;;;5.43;3.70;;;;;;;12.13;100.00;99263.63;4982211;28;20090;-87
2023/03/24 01:09:40;;;;;;;6.53;3.90;;;;;;;12.18;100.00;99264.13;4988950;28;20047;-85
2023/03/24 01:12:07;;;;;;;6.78;3.83;;;;;;;11.97;100.00;99236.47;4994068;28;20054;-85
2023/03/24 01:14:35;;;;;;;4.97;3.30;;;;;;;12.13;100.00;99271.56;4978115;28;20061;-85
2023/03/24 01:17:02;;;;;;;6.35;3.80;;;;;;;11.86;100.00;99207.22;4999000;28;20113;-86
2023/03/24 01:19:29;;;;;;;5.45;3.88;;;;;;;12.16;100.00;99250.13;4992747;28;20050;-86
2023/03/24 01:21:58;;;;;;;5.57;3.88;;;;;;;12.19;100.00;99249.91;4975205;28;20035;-87
2023/03/24 01:24:26;;;;;;;5.20;3.47;;;;;;;12.25;100.00;99241.53;4994099;28;20101;-85
2023/03/24 01:26:56;;;;;;;5.00;3.75;;;;;;;12.30;100.00;99239.38;4994651;28;20050;-86
2023/03/24 01:29:23;;;;;;;5.65;3.40;;;;;;;12.23;100.00;99232.81;4983292;28;20045;-87
2023/03/24 01:31:49;;;;;;;6.47;3.60;;;;;;;12.20;100.00;99230.38;4986026;28;20380;-87
2023/03/24 01:34:16;;;;;;;4.65;3.63;;;;;;;12.19;100.00;99228.69;4990000;28;20155;-85
2023/03/24 01:36:43;;;;;;;4.90;3.97;;;;;;;12.06;100.00;99206.66;4985620;28;20538;-86
2023/03/24 01:39:11;;;;;;;4.93;3.75;;;;;;;12.08;100.00;99217.16;4980361;28;20085;-88
2023/03/24 01:41:42;;;;;;;5.05;3.63;;;;;;;12.12;100.00;99227.41;4982314;28;20029;-87
2023/03/24 01:44:26;;;;;;;5.80;3.50;;;;;;;11.83;100.00;99179.09;5024100;28;20057;-88
2023/03/24 01:46:56;;;;;;;5.50;3.80;;;;;;;11.99;100.00;99209.84;5002906;28;20480;-88
2023/03/24 01:49:30;;;;;;;5.47;3.88;;;;;;;12.06;100.00;99224.38;4986176;28;20053;-90
2023/03/24 01:52:00;;;;;;;5.32;3.47;;;;;;;12.03;100.00;99203.34;4984215;28;20039;-90
2023/03/24 01:54:34;;;;;;;4.85;3.25;;;;;;;11.97;100.00;99186.06;5000849;28;20089;-91
2023/03/24 01:57:21;;;;;;;5.22;3.70;;;;;;;12.07;100.00;99197.72;5000926;28;20108;-90
2023/03/24 01:59:51;;;;;;;4.90;3.45;;;;;;;12.11;100.00;99193.06;4981169;28;20054;-90
2023/03/24 02:02:20;;;;;;;3.85;3.22;;;;;;;12.12;100.00;99206.19;5001113;28;20220;-90
2023/03/24 02:04:58;;;;;;;4.47;3.30;;;;;;;12.04;100.00;99191.78;4984461;28;20447;-91
2023/03/24 02:07:32;;;;;;;5.97;3.45;;;;;;;12.20;100.00;99210.97;4989523;28;20114;-91
2023/03/24 02:10:08;;;;;;;4.50;3.50;;;;;;;12.09;100.00;99189.66;4990597;28;20302;-91
2023/03/24 02:12:35;;;;;;;5.28;3.92;;;;;;;12.16;100.00;99194.41;5014093;28;20084;-91
2023/03/24 02:15:14;;;;;;;5.82;4.00;;;;;;;12.22;100.00;99190.47;4983447;28;20116;-93
2023/03/24 02:18:04;;;;;;;4.28;3.30;;;;;;;12.25;100.00;99193.75;4998982;28;20038;-92
2023/03/24 02:20:59;;;;;;;8.73;3.75;;;;;;;12.25;100.00;99192.91;5016879;28;20535;-90
2023/03/24 02:23:48;;;;;;;6.65;3.58;;;;;;;12.18;100.00;99187.19;5005543;28;20042;-90
2023/03/24 02:26:35;;;;;;;6.15;3.78;;;;;;;12.18;100.00;99183.69;4995655;28;20325;-85
2023/03/24 02:29:35;;;;;;;4.90;3.58;;;;;;;12.13;100.00;99173.38;5008323;28;20030;-87
2023/03/24 02:32:29;;;;;;;3.70;2.90;;;;;;;12.27;100.00;99162.63;5007456;28;20019;-91
2023/03/24 02:35:40;;;;;;;5.85;3.85;;;;;;;12.27;100.00;99156.47;5010825;28;20034;-92
2023/03/24 02:38:42;;;;;;;5.40;3.70;;;;;;;12.27;100.00;99138.75;5004805;28;20105;-89
2023/03/24 02:41:28;;;;;;;7.90;3.72;;;;;;;12.29;100.00;99142.09;5011004;28;20042;-91
2023/03/24 02:44:17;;;;;;;7.10;4.20;;;;;;;12.24;100.00;99141.63;5007502;28;20042;-92
2023/03/24 02:47:27;;;;;;;6.00;3.78;;;;;;;12.13;100.00;99115.00;4991240;28;20038;-92
2023/03/24 02:50:08;;;;;;;5.55;3.85;;;;;;;12.01;100.00;99107.94;5008257;28;20046;-91
2023/03/24 02:52:49;;;;;;;9.15;4.10;;;;;;;11.91;100.00;99088.38;4999198;28;20051;-90
2023/03/24 02:55:51;;;;;;;4.68;3.83;;;;;;;11.70;100.00;99066.03;4976756;28;20475;-91
2023/03/24 02:58:36;;;;;;;7.35;3.88;;;;;;;11.97;100.00;99114.44;5001276;28;20052;-91
2023/03/24 03:01:10;;;;;;;6.20;4.43;;;;;;;11.81;100.00;99093.47;5000044;28;20111;-89
2023/03/24 03:03:45;;;;;;;7.60;3.88;;;;;;;11.57;100.00;99080.16;4990654;28;20054;-90
2023/03/24 03:06:31;;;;;;;5.78;4.05;;;;;;;11.73;100.00;99119.69;4987618;28;20055;-90
2023/03/24 03:09:02;;;;;;;5.97;4.45;;;;;;;11.70;100.00;99130.50;5005451;28;20034;-89
2023/03/24 03:11:29;;;;;;;7.47;4.20;;;;;;;11.66;100.00;99125.53;4977891;28;20043;-91
2023/03/24 03:14:03;;;;;;;5.20;4.30;;;;;;;11.61;100.00;99117.94;4997342;28;20229;-91
2023/03/24 03:16:46;;;;;;;5.95;4.53;;;;;;;11.57;100.00;99109.34;4978951;28;20057;-92
2023/03/24 03:19:22;;;;;;;4.63;4.05;;;;;;;11.54;100.00;99095.44;5002806;28;20165;-87
2023/03/24 03:21:53;;;;;;;5.80;4.30;;;;;;;11.20;100.00;99020.13;4994806;28;20042;-92
2023/03/24 03:24:25;;;;;;;8.73;4.68;;;;;;;11.68;100.00;99105.91;4981242;28;20160;-91
2023/03/24 03:26:59;;;;;;;7.53;4.80;;;;;;;11.67;100.00;99114.81;5002665;28;20058;-90
2023/03/24 03:29:32;;;;;;;6.68;5.07;;;;;;;11.59;100.00;99095.97;5007852;28;20106;-88
2023/03/24 03:32:12;;;;;;;7.22;4.90;;;;;;;11.64;100.00;99093.00;5012260;28;20050;-88
2023/03/24 03:34:48;;;;;;;8.80;5.20;;;;;;;11.63;100.00;99088.66;4994205;28;20038;-88
2023/03/24 03:37:26;;;;;;;8.43;5.20;;;;;;;11.61;100.00;99088.75;4991306;28;20050;-86
2023/03/24 03:40:18;;;;;;;6.07;4.80;;;;;;;11.53;100.00;99091.09;5005956;28;20058;-92
2023/03/24 03:42:46;;;;;;;9.45;5.50;;;;;;;11.22;100.00;99048.22;5004787;28;20080;-92
2023/03/24 03:45:14;;;;;;;7.03;5.13;;;;;;;11.45;100.00;99080.22;4977916;28;20043;-91
2023/03/24 03:47:44;;;;;;;7.13;5.20;;;;;;;11.36;100.00;99055.19;4989668;28;20068;-92
2023/03/24 03:50:12;;;;;;;7.28;5.32;;;;;;;11.03;100.00;99002.78;5011553;28;20119;-87
2023/03/24 03:52:40;;;;;;;7.25;5.18;;;;;;;11.54;100.00;99093.63;5013291;28;20077;-90
2023/03/24 03:55:09;;;;;;;5.55;4.93;;;;;;;11.57;100.00;99090.78;4987047;28;20048;-93
2023/03/24 03:57:37;;;;;;;7.03;5.00;;;;;;;11.57;100.00;99089.94;4981539;28;20061;-92
2023/03/24 04:00:13;;;;;;;7.32;5.50;;;;;;;11.57;100.00;99101.38;4977411;28;20358;-87
2023/03/24 04:03:04;;;;;;;7.63;5.22;;;;;;;11.59;100.00;99102.13;4995952;28;20510;-87
2023/03/24 04:05:36;;;;;;;;;;;;;;;11.62;100.00;99095.75;4997661;28;20042;-91
2023/03/24 04:08:25;;;;;;;7.47;5.35;;;;;;;11.63;100.00;99096.59;4979538;28;19918;-91
2023/03/24 04:11:09;;;;;;;8.13;5.22;;;;;;;11.65;100.00;99089.41;4994761;28;20046;-90
2023/03/24 04:13:55;;;;;;;8.15;5.38;;;;;;;11.45;100.00;99057.19;4999394;28;20053;-92
2023/03/24 04:16:50;;;;;;;7.03;5.07;;;;;;;11.65;100.00;99078.78;4996248;28;20117;-92
2023/03/24 04:19:46;;;;;;;8.40;5.43;;;;;;;11.35;100.00;99003.13;5000542;28;20050;-90
2023/03/24 04:22:26;;;;;;;6.85;5.05;;;;;;;11.90;100.00;99078.72;4978344;28;20054;-89
2023/03/24 04:25:39;;;;;;;8.60;5.53;;;;;;;12.06;100.00;99095.22;4996874;28;20058;-91
2023/03/24 04:28:46;;;;;;;8.38;5.70;;;;;;;12.20;100.00;99100.34;5003147;28;20038;-91
2023/03/24 04:31:33;;;;;;;7.05;5.45;;;;;;;12.35;100.00;99110.78;5002004;28;20050;-89
2023/03/24 04:34:06;;;;;;;7.50;5.60;;;;;;;12.08;100.00;99045.53;5008737;28;20046;-86
2023/03/24 04:36:43;;;;;;;6.57;5.65;;;;;;;12.27;100.00;99076.84;5014630;28;20038;-86
2023/03/24 04:39:24;;;;;;;9.98;6.53;;;;;;;12.47;100.00;99107.19;5010143;28;20062;-88
2023/03/24 04:41:55;;;;;;;7.20;5.97;;;;;;;12.20;100.00;99060.53;5009583;28;20046;-89
2023/03/24 04:44:25;;;;;;;7.55;5.35;;;;;;;12.04;100.00;99037.91;4992752;28;20089;-89
2023/03/24 04:46:56;;;;;;;8.60;6.68;;;;;;;12.09;100.00;99055.19;5018642;28;20049;-90
2023/03/24 04:49:24;;;;;;;7.03;6.00;;;;;;;12.17;100.00;99066.06;5010020;28;20098;-89
2023/03/24 04:51:56;;;;;;;8.40;6.53;;;;;;;12.19;100.00;99079.22;5006453;28;20046;-90
2023/03/24 04:54:24;;;;;;;9.00;6.13;;;;;;;12.23;100.00;99091.31;4980409;28;20109;-92
2023/03/24 04:56:53;;;;;;;8.98;6.95;;;;;;;12.05;100.00;99064.31;4978412;28;20086;-91
2023/03/24 04:59:20;;;;;;;9.82;6.57;;;;;;;12.05;100.00;99074.94;5000093;28;20100;-88
2023/03/24 05:01:48;;;;;;;8.55;6.50;;;;;;;12.21;100.00;99075.50;4997435;28;20070;-89
2023/03/24 05:04:17;;;;;;;8.85;6.93;;;;;;;12.19;100.00;99074.75;4981314;28;20042;-88
2023/03/24 05:06:45;;;;;;;8.00;6.18;;;;;;;12.01;100.00;99046.94;4995582;28;20034;-87
2023/03/24 05:09:14;;;;;;;7.37;6.37;;;;;;;12.07;100.00;99043.84;4978666;28;20120;-90
2023/03/24 05:11:46;;;;;;;10.98;6.70;;;;;;;12.23;100.00;99060.31;4984567;28;20042;-88
2023/03/24 05:14:14;;;;;;;10.63;6.45;;;;;;;12.18;100.00;99070.41;4988639;28;20133;-88
2023/03/24 05:16:41;;;;;;;8.82;6.72;;;;;;;11.82;100.00;99010.31;4990392;28;20081;-87
2023/03/24 05:19:10;;;;;;;8.80;7.00;;;;;;;12.17;100.00;99074.03;5009001;28;20034;-88
2023/03/24 05:21:40;;;;;;;9.75;6.60;;;;;;;11.92;100.00;99029.06;4988010;28;20047;-89
2023/03/24 05:24:11;;;;;;;11.35;7.10;;;;;;;11.80;100.00;99020.22;4985062;28;20061;-89
2023/03/24 05:26:37;;;;;;;8.82;6.80;;;;;;;12.03;100.00;99082.16;4999584;28;20050;-90
2023/03/24 05:29:05;;;;;;;9.27;6.68;;;;;;;12.06;100.00;99100.50;4985990;28;20038;-89
2023/03/24 05:31:34;;;;;;;10.05;7.25;;;;;;;12.05;100.00;99122.69;5001129;28;20042;-91
2023/03/24 05:34:03;;;;;;;11.65;7.38;;;;;;;12.07;100.00;99134.03;4999898;28;20117;-91
2023/03/24 05:36:33;;;;;;;10.25;7.10;;;;;;;11.90;100.00;99094.63;4986081;28;20052;-87
2023/03/24 05:39:03;;;;;;;11.10;7.78;;;;;;;11.74;100.00;99078.09;4985270;28;20042;-90
2023/03/24 05:41:34;;;;;;;11.27;7.65;;;;;;;12.03;100.00;99129.06;5002902;28;20038;-91
2023/03/24 05:44:02;;;;;;;10.07;7.05;;;;;;;12.02;100.00;99127.38;5011094;28;20076;-90
2023/03/24 05:46:36;;;;;;;8.95;7.13;;;;;;;11.60;100.00;99039.34;5013486;28;20047;-90
2023/03/24 05:49:06;;;;;;;8.65;7.72;;;;;;;12.18;100.00;99144.72;4998715;28;20857;-90
2023/03/24 05:51:33;;;;;;;11.38;7.68;;;;;;;12.03;100.00;99116.66;5014165;28;20101;-90
2023/03/24 05:54:00;;;;;;;9.60;7.70;;;;;;;12.14;100.00;99147.69;4977426;28;20129;-89
2023/03/24 05:56:32;;;;;;;13.68;8.10;;;;;;;12.11;100.00;99148.78;5020690;28;20101;-90
2023/03/24 05:59:00;;;;;;;10.30;7.50;;;;;;;12.07;100.00;99142.00;5000263;28;20118;-88
2023/03/24 06:01:38;;;;;;;8.43;7.35;;;;;;;12.15;100.00;99149.41;5013704;28;20042;-89
2023/03/24 06:04:12;;;;;;;7.85;6.60;;;;;;;12.16;100.00;99157.25;4992462;28;20069;-89
2023/03/24 06:06:44;;;;;;;9.48;6.82;;;;;;;12.25;100.00;99161.91;5003308;28;20077;-89
2023/03/24 06:09:13;;;;;;;8.63;6.70;;;;;;;12.22;100.00;99148.84;4988772;28;20039;-89
2023/03/24 06:11:50;;;;;;;9.23;6.57;;;;;;;12.24;100.00;99157.53;5001548;28;20134;-89
2023/03/24 06:14:17;;;;;;;10.13;7.43;;;;;;;12.25;100.00;99150.44;4963709;28;20042;-89
2023/03/24 06:16:58;;;;;;;8.60;6.22;;;;;;;12.33;100.00;99160.47;5011257;28;20069;-90
2023/03/24 06:19:26;;;;;;;6.65;5.95;;;;;;;12.33;100.00;99161.31;4982209;28;20373;-89
2023/03/24 06:21:54;;;;;;;6.80;5.88;;;;;;;12.40;100.00;99173.19;4996183;28;20038;-90
2023/03/24 06:24:21;;;;;;;6.38;5.18;;;;;;;12.21;100.00;99130.38;4999982;28;20061;-89
2023/03/24 06:26:48;;;;;;;10.00;5.38;;;;;;;12.46;100.00;99161.25;4984422;28;20494;-90
2023/03/24 06:29:18;;;;;;;6.35;4.70;;;;;;;12.41;100.00;99150.16;5000602;28;20038;-90
2023/03/24 06:31:47;;;;;;;6.65;4.05;;;;;;;12.45;100.00;99147.13;5008813;28;20498;-91
2023/03/24 06:34:15;;;;;;;5.25;3.65;;;;;;;12.60;100.00;99172.53;4991792;28;20517;-90
2023/03/24 06:36:42;;;;;;;5.30;3.70;;;;;;;12.53;100.00;99154.53;4995986;28;20050;-89
2023/03/24 06:39:10;;;;;;;4.00;3.25;;;;;;;12.54;100.00;99161.53;4983328;28;20046;-90
2023/03/24 06:41:36;;;;;;;3.90;2.85;;;;;;;12.59;100.00;99168.19;4982137;28;20049;-90
2023/03/24 06:44:03;;;;;;;3.30;2.90;;;;;;;12.52;100.00;99160.81;4982400;28;20088;-89
2023/03/24 06:46:30;;;;;;;3.28;2.65;;;;;;;12.56;100.00;99175.56;4998712;28;20042;-90
2023/03/24 06:48:58;;;;;;;3.35;3.05;;;;;;;12.27;100.00;99128.13;4983711;28;20050;-87
2023/03/24 06:51:25;;;;;;;4.47;2.70;;;;;;;12.48;100.00;99173.47;4999900;28;20497;-88
2023/03/24 06:53:52;;;;;;;4.32;2.83;;;;;;;12.46;100.00;99172.72;4981929;28;20046;-88
2023/03/24 06:56:20;;;;;;;3.67;2.70;;;;;;;12.53;100.00;99175.78;5003103;28;20058;-88
2023/03/24 06:58:48;;;;;;;3.13;2.83;;;;;;;12.55;100.00;99172.06;5002891;28;20408;-89
2023/03/24 07:01:15;;;;;;;3.30;2.95;;;;;;;12.61;100.00;99165.41;5000702;28;20042;-88
2023/03/24 07:03:43;;;;;;;3.92;3.03;;;;;;;12.62;100.00;99164.47;5010276;28;20046;-89
2023/03/24 07:06:17;;;;;;;3.75;3.28;;;;;;;12.66;100.00;99157.97;5014204;28;20046;-88
2023/03/24 07:08:44;;;;;;;6.10;3.88;;;;;;;12.75;100.00;99149.28;4984954;28;20435;-89
2023/03/24 07:11:25;;;;;;;4.93;4.13;;;;;;;12.87;100.00;99151.03;4990576;28;20160;-89
2023/03/24 07:13:52;;;;;;;5.90;3.80;;;;;;;13.06;100.00;99177.06;4984045;28;20046;-88
2023/03/24 07:16:25;;;;;;;4.30;3.85;;;;;;;12.62;100.00;99104.22;4982489;28;20053;-88
2023/03/24 07:19:00;;;;;;;4.45;4.05;;;;;;;12.81;100.00;99162.13;4981715;28;20075;-87
2023/03/24 07:21:27;;;;;;;5.43;4.15;;;;;;;12.77;100.00;99165.97;5009369;28;20505;-89
2023/03/24 07:23:56;;;;;;;5.45;4.05;;;;;;;12.75;100.00;99177.69;5007657;28;20034;-89
2023/03/24 07:26:28;;;;;;;4.57;4.18;;;;;;;12.76;100.00;99193.50;4984459;28;20051;-89
2023/03/24 07:28:58;;;;;;;5.65;4.80;;;;;;;12.39;100.00;99130.81;4986389;28;20038;-88
2023/03/24 07:31:27;;;;;;;4.63;4.13;;;;;;;12.76;100.00;99195.31;4994908;28;20046;-89
2023/03/24 07:33:54;;;;;;;5.07;4.45;;;;;;;12.69;100.00;99189.63;5007220;28;20054;-87
2023/03/24 07:36:21;;;;;;;6.22;4.63;;;;;;;12.54;100.00;99164.19;5001072;28;20065;-87
2023/03/24 07:38:50;;;;;;;6.50;4.38;;;;;;;12.72;100.00;99191.19;5005159;28;20056;-89
2023/03/24 07:41:19;;;;;;;7.10;4.40;;;;;;;12.79;100.00;99181.78;5003342;28;20062;-89
2023/03/24 07:43:46;;;;;;;6.68;4.40;;;;;;;12.97;100.00;99201.66;4977873;28;20042;-90
2023/03/24 07:46:15;;;;;;;5.07;4.55;;;;;;;12.98;100.00;99198.91;5001600;28;20065;-88
2023/03/24 07:48:44;;;;;;;4.95;4.43;;;;;;;13.01;100.00;99208.44;4984947;28;20452;-90
2023/03/24 07:51:26;;;;;;;6.10;4.85;;;;;;;13.06;100.00;99216.09;5003207;28;20128;-90
2023/03/24 07:53:54;;;;;;;7.20;4.90;;;;;;;13.09;100.00;99218.47;4982045;28;20038;-90
2023/03/24 07:56:30;;;;;;;5.80;4.80;;;;;;;12.86;100.00;99191.84;4996192;28;20054;-89
2023/03/24 07:59:00;;;;;;;5.35;4.82;;;;;;;12.91;100.00;99210.94;5000193;28;20081;-90
2023/03/24 08:01:29;;;;;;;7.38;4.95;;;;;;;12.92;100.00;99225.06;4987343;28;20050;-92
2023/03/24 08:03:57;;;;;;;5.15;4.65;;;;;;;12.92;100.00;99223.25;4999918;28;20109;-92
2023/03/24 08:06:28;;;;;;;5.18;4.60;;;;;;;12.89;100.00;99227.97;5007203;28;20030;-90
2023/03/24 08:08:58;;;;;;;7.70;4.97;;;;;;;12.75;100.00;99202.41;4995671;28;20046;-91
2023/03/24 08:11:35;;;;;;;5.45;4.95;;;;;;;12.77;100.00;99207.63;5006954;28;20097;-93
2023/03/24 08:14:03;;;;;;;8.32;5.32;;;;;;;12.82;100.00;99219.59;4995036;28;20035;-92
2023/03/24 08:16:32;;;;;;;6.85;4.80;;;;;;;12.83;100.00;99200.06;5008461;28;20109;-96
2023/03/24 08:19:15;;;;;;;5.88;4.85;;;;;;;12.74;100.00;99203.41;5001335;28;20050;-90
2023/03/24 08:21:46;;;;;;;8.27;5.88;;;;;;;12.60;100.00;99192.94;4992671;28;20046;-89
2023/03/24 08:24:18;;;;;;;7.90;5.65;;;;;;;12.03;100.00;99105.19;5005945;28;20065;-89
2023/03/24 08:27:05;;;;;;;7.15;4.80;;;;;;;12.27;100.00;99153.81;4976914;28;20053;-91
2023/03/24 08:29:36;;;;;;;5.15;4.18;;;;;;;12.13;100.00;99153.97;4992353;28;20050;-91
2023/03/24 08:32:10;;;;;;;7.13;4.60;;;;;;;12.20;100.00;99181.75;5005466;28;20050;-89
2023/03/24 08:34:53;;;;;;;6.50;4.18;;;;;;;12.15;100.00;99191.84;5003730;28;20038;-88
2023/03/24 08:37:28;;;;;;;5.05;3.38;;;;;;;11.92;100.00;99169.66;5008115;28;20054;-88
2023/03/24 08:40:04;;;;;;;6.55;3.95;;;;;;;12.05;100.00;99212.91;4990542;28;20061;-91
2023/03/24 08:42:36;;;;;;;7.50;3.90;;;;;;;12.10;100.00;99224.06;4987015;28;20046;-89
2023/03/24 08:45:19;;;;;;;;;;;;;;;12.12;100.00;99227.41;4995428;28;20103;-90
2023/03/24 08:48:12;;;;;;;5.20;4.70;;;;;;;12.02;100.00;99220.22;5012858;28;19910;-89
2023/03/24 08:51:15;;;;;;;7.47;4.78;;;;;;;12.13;100.00;99225.63;5012965;28;20498;-89
2023/03/24 08:54:08;;;;;;;5.38;3.95;;;;;;;12.05;100.00;99209.41;5010591;28;20070;-90
2023/03/24 08:56:36;;;;;;;6.53;4.68;;;;;;;12.12;100.00;99200.06;4999586;28;20100;-88
2023/03/24 08:59:13;;;;;;;8.07;6.20;;;;;;;12.15;100.00;99200.66;4998665;28;20050;-89
2023/03/24 09:01:40;;;;;;;10.32;6.28;;;;;;;12.21;100.00;99210.84;5013496;28;20050;-87
2023/03/24 09:04:15;;;;;;;7.65;5.72;;;;;;;12.15;100.00;99181.25;5012204;28;20039;-89
2023/03/24 09:06:48;;;;;;;10.07;6.30;;;;;;;12.45;100.00;99191.41;5012497;28;20133;-91
2023/03/24 09:09:18;;;;;;;6.88;4.80;;;;;;;12.48;100.00;99201.81;4991474;28;20106;-89
2023/03/24 09:11:47;;;;;;;4.97;3.80;;;;;;;12.17;100.00;99153.63;5006977;28;20089;-91
2023/03/24 09:14:21;;;;;;;8.20;4.20;;;;;;;12.35;100.00;99223.13;4990061;28;20057;-87
2023/03/24 09:16:49;;;;;;;3.72;3.33;;;;;;;11.82;100.00;99150.88;5013111;28;20038;-89
2023/03/24 09:19:21;;;;;;;5.15;2.60;;;;;;;11.83;100.00;99192.34;5007615;28;20127;-88
2023/03/24 09:21:48;;;;;;;2.80;2.53;;;;;;;11.88;100.00;99234.47;5002804;28;20050;-89
2023/03/24 09:24:19;;;;;;;3.42;2.40;;;;;;;11.43;100.00;99164.28;4979279;28;20050;-87
2023/03/24 09:26:56;;;;;;;3.88;2.38;;;;;;;11.47;100.00;99163.13;4966454;28;20058;-87
2023/03/24 09:29:26;;;;;;;2.20;1.35;;;;;;;11.78;100.00;99229.00;4997478;28;20130;-89
2023/03/24 09:31:56;;;;;;;1.75;1.50;;;;;;;11.67;100.00;99231.50;4995295;28;20050;-92
2023/03/24 09:34:26;;;;;;;2.55;1.33;;;;;;;11.55;100.00;99237.66;4998508;28;20046;-85
2023/03/24 09:36:56;;;;;;;1.77;1.20;;;;;;;11.35;100.00;99206.38;4998280;28;20484;-92
2023/03/24 09:39:26;;;;;;;3.33;1.30;;;;;;;11.59;100.00;99258.56;4981600;28;20039;-90
2023/03/24 09:41:54;;;;;;;1.67;1.20;;;;;;;11.35;100.00;99223.13;4981899;28;20042;-89
2023/03/24 09:44:32;;;;;;;2.92;1.45;;;;;;;11.47;100.00;99254.09;4995697;28;20042;-90
2023/03/24 09:47:25;;;;;;;2.22;1.33;;;;;;;11.41;100.00;99243.06;4991011;28;20361;-90
2023/03/24 09:49:54;;;;;;;2.90;1.40;;;;;;;11.44;100.00;99261.41;4995384;28;20046;-90
2023/03/24 09:52:32;;;;;;;2.20;1.20;;;;;;;11.53;100.00;99281.97;4981506;28;20074;-90
2023/03/24 09:55:03;;;;;;;2.70;1.20;;;;;;;11.47;100.00;99288.56;4997468;28;20439;-90
2023/03/24 09:57:46;;;;;;;1.95;1.13;;;;;;;11.11;100.00;99256.59;4994411;28;20455;-89
2023/03/24 10:00:21;;;;;;;2.97;1.00;;;;;;;11.31;100.00;99314.41;4996244;28;20080;-87
2023/03/24 10:02:50;;;;;;;2.97;1.30;;;;;;;11.20;100.00;99309.81;4983133;28;20685;-87
2023/03/24 10:05:36;;;;;;;2.92;1.40;;;;;;;11.14;100.00;99301.44;5009303;28;20109;-88
2023/03/24 10:08:17;;;;;;;2.55;1.73;;;;;;;11.19;100.00;99317.84;5010226;28;20035;-85
2023/03/24 10:10:56;;;;;;;2.05;1.63;;;;;;;11.04;100.00;99279.13;5011575;28;20046;-85
2023/03/24 10:13:57;;;;;;;3.90;1.20;;;;;;;11.05;100.00;99297.59;5008188;28;20091;-84
2023/03/24 10:17:03;;;;;;;4.30;1.20;;;;;;;10.84;100.00;99302.50;4995180;28;20058;-92
2023/03/24 10:19:52;;;;;;;3.78;1.25;;;;;;;10.88;100.00;99333.13;4974769;28;20106;-85
2023/03/24 10:22:40;;;;;;;3.05;1.02;;;;;;;10.76;100.00;99339.22;4993223;28;20030;-91
2023/03/24 10:25:25;;;;;;;5.40;1.67;;;;;;;10.72;100.00;99342.16;4983698;28;20046;-87
2023/03/24 10:28:23;;;;;;;2.72;1.40;;;;;;;10.55;100.00;99325.53;4980899;28;20042;-91
2023/03/24 10:31:10;;;;;;;4.43;1.15;;;;;;;10.65;100.00;99356.75;4995372;28;20045;-89
2023/03/24 10:33:46;;;;;;;4.40;1.33;;;;;;;10.49;100.00;99343.63;5000739;28;20054;-89
2023/03/24 10:36:17;;;;;;;4.13;1.35;;;;;;;10.58;100.00;99358.91;5009161;28;20655;-87
2023/03/24 10:38:46;;;;;;;3.08;1.75;;;;;;;10.68;100.00;99356.56;4998392;28;20034;-86
2023/03/24 10:41:23;;;;;;;3.20;1.70;;;;;;;10.71;100.00;99346.59;5005901;28;20085;-87
2023/03/24 10:44:01;;;;;;;4.30;1.70;;;;;;;11.02;100.00;99347.28;4981898;28;20085;-88
2023/03/24 10:46:36;;;;;;;7.07;1.40;;;;;;;11.14;100.00;99334.09;4998575;28;20052;-89
2023/03/24 10:49:20;;;;;;;3.38;1.67;;;;;;;11.21;100.00;99329.22;4991098;28;20068;-90
2023/03/24 10:52:02;;;;;;;4.28;1.80;;;;;;;11.27;100.00;99320.88;4990666;28;20407;-87
2023/03/24 10:54:31;;;;;;;3.63;1.73;;;;;;;11.38;100.00;99323.63;4979496;28;20061;-86
2023/03/24 10:57:13;;;;;;;4.97;1.70;;;;;;;11.47;100.00;99322.19;4987147;28;20138;-86
2023/03/24 11:00:18;;;;;;;6.43;2.20;;;;;;;11.53;100.00;99343.81;4989998;28;20057;-89
2023/03/24 11:02:57;;;;;;;6.47;2.78;;;;;;;11.48;100.00;99348.59;4982620;28;20061;-88
2023/03/24 11:05:35;;;;;;;5.78;2.90;;;;;;;11.39;100.00;99338.59;4991982;28;20062;-89
2023/03/24 11:08:11;;;;;;;7.68;2.80;;;;;;;11.39;100.00;99333.28;4975298;28;20556;-86
2023/03/24 11:10:39;;;;;;;4.10;2.40;;;;;;;11.46;100.00;99354.94;4995024;28;21315;-86
2023/03/24 11:13:16;;;;;;;3.70;2.03;;;;;;;11.55;100.00;99360.47;4982318;28;20074;-88
2023/03/24 11:16:13;;;;;;;6.78;2.50;;;;;;;11.71;100.00;99364.72;4981858;28;20069;-89
2023/03/24 11:19:04;;;;;;;3.40;2.00;;;;;;;11.86;100.00;99375.19;4999417;28;20166;-89
2023/03/24 11:21:35;;;;;;;3.40;1.50;;;;;;;12.13;100.00;99372.41;5002912;28;20034;-87
2023/03/24 11:24:14;;;;;;;3.92;1.30;;;;;;;12.29;100.00;99369.53;5005326;28;20047;-88
2023/03/24 11:26:59;;;;;;;3.08;1.38;;;;;;;12.25;100.00;99370.75;5006249;28;20386;-86
2023/03/24 11:29:29;;;;;;;3.35;1.55;;;;;;;12.14;100.00;99362.66;4990527;28;20046;-90
2023/03/24 11:31:59;;;;;;;2.88;1.67;;;;;;;12.03;100.00;99352.78;4995586;28;20046;-87
2023/03/24 11:34:41;;;;;;;4.80;1.75;;;;;;;12.32;100.00;99369.34;4998475;28;20050;-89
2023/03/24 11:37:22;;;;;;;7.53;3.70;;;;;;;12.46;100.00;99368.34;4999550;28;20066;-88
2023/03/24 11:40:15;;;;;;;4.60;2.10;;;;;;;12.63;100.00;99352.06;5001490;28;20058;-89
2023/03/24 11:43:03;;;;;;;4.35;2.10;;;;;;;12.72;100.00;99322.19;4998514;28;20050;-88
2023/03/24 11:46:12;;;;;;;4.28;1.80;;;;;;;13.06;100.00;99349.81;5104335;23;20190;-88
2023/03/24 11:48:51;;;;;;;3.28;1.80;;;;;;;13.17;100.00;99352.56;4974241;28;20137;-88
2023/03/24 11:51:39;;;;;;;2.20;1.42;;;;;;;13.20;100.00;99336.38;4956952;28;20055;-88
2023/03/24 11:54:17;;;;;;;4.72;2.95;;;;;;;12.94;100.00;99285.09;4963914;28;20063;-88
2023/03/24 11:56:48;;;;;;;3.92;1.58;;;;;;;13.04;100.00;99301.25;4986160;28;20050;-88
2023/03/24 11:59:32;;;;;;;2.30;1.27;;;;;;;12.94;100.00;99277.13;4987276;28;20078;-85
2023/03/24 12:02:27;;;;;;;3.10;1.10;;;;;;;13.43;100.00;99341.78;4971524;28;20046;-88